Time;durP1;ratioP1;P1;durP2;ratioP2;P2;SDS_P1;SDS_P2;PMS_P1;PMS_P2;Temp;Humidity;BMP_temperature;BMP_pressure;BME280_temperature;BME280_humidity;BME280_pressure;Samples;Min_cycle;Max_cycle;Signal;HPM_P1;HPM_P2
2022/02/03 00:05:09;;;;;;;10.75;3.60;;;;;;;1.59;83.09;98043.53;5051042;28;20139;-75
2022/02/03 00:07:55;;;;;;;8.67;4.13;;;;;;;1.59;83.20;98031.94;5053562;28;20102;-74
2022/02/03 00:10:35;;;;;;;8.27;3.58;;;;;;;1.60;83.50;98044.31;5054219;28;20056;-75
2022/02/03 00:24:21;;;;;;;14.05;6.40;;;;;;;1.22;86.75;98063.69;5052741;28;20098;-76
2022/02/03 00:27:14;;;;;;;12.52;4.43;;;;;;;1.08;87.56;98063.06;5052506;28;20028;-76
2022/02/03 00:32:14;;;;;;;10.70;4.18;;;;;;;0.95;88.86;98065.97;5032954;28;20029;-74
2022/02/03 00:35:05;;;;;;;12.68;5.20;;;;;;;0.94;89.09;98075.09;5032360;28;20041;-75
2022/02/03 00:37:46;;;;;;;14.38;4.70;;;;;;;0.86;89.51;98072.75;5047383;28;20112;-75
2022/02/03 00:48:33;;;;;;;9.90;4.85;;;;;;;0.68;92.13;98088.13;5032265;28;20056;-75
2022/02/03 00:51:00;;;;;;;10.23;5.07;;;;;;;0.65;92.28;98078.66;5032064;28;20029;-75
2022/02/03 00:53:26;;;;;;;11.52;4.78;;;;;;;0.72;91.60;98087.44;5031979;28;20124;-75
2022/02/03 00:55:54;;;;;;;10.48;4.95;;;;;;;0.61;91.95;98077.47;5030520;28;20094;-75
2022/02/03 00:58:25;;;;;;;11.65;5.07;;;;;;;0.62;92.16;98095.25;5031600;28;20402;-75
2022/02/03 01:00:59;;;;;;;12.43;5.65;;;;;;;0.48;92.54;98108.06;5030483;28;20033;-74
2022/02/03 01:03:29;;;;;;;10.98;4.80;;;;;;;0.46;93.11;98104.78;5031753;28;20068;-74
2022/02/03 01:06:00;;;;;;;8.93;4.43;;;;;;;0.43;93.57;98124.06;5029702;28;20083;-75
2022/02/03 01:08:28;;;;;;;9.32;4.35;;;;;;;0.46;93.39;98126.31;5030008;28;20402;-74
2022/02/03 01:11:08;;;;;;;11.07;4.60;;;;;;;0.59;92.44;98133.41;5029890;28;20032;-75
2022/02/03 01:16:15;;;;;;;9.65;4.25;;;;;;;0.54;92.38;98122.47;5031237;28;20036;-74
2022/02/03 01:21:44;;;;;;;8.73;3.88;;;;;;;0.37;92.43;98124.16;5037251;28;20029;-75
2022/02/03 01:53:29;;;;;;;7.40;3.60;;;;;;;0.11;93.34;98168.31;5052197;28;20086;-74
2022/02/03 01:56:03;;;;;;;8.20;3.45;;;;;;;0.19;92.87;98169.91;5054015;28;20740;-74
2022/02/03 01:58:37;;;;;;;8.55;3.65;;;;;;;0.27;92.17;98174.97;5049721;28;20040;-74
2022/02/03 02:01:03;;;;;;;7.95;3.13;;;;;;;0.33;91.39;98174.88;5050860;28;20033;-74
2022/02/03 02:03:45;;;;;;;7.78;3.30;;;;;;;0.39;90.72;98171.31;5049799;28;20556;-74
2022/02/03 02:06:50;;;;;;;7.68;3.40;;;;;;;0.42;89.97;98178.91;5050729;28;20041;-75
2022/02/03 02:09:24;;;;;;;5.30;2.58;;;;;;;0.61;89.27;98187.78;5050496;28;20036;-74
2022/02/03 02:12:21;;;;;;;6.93;2.80;;;;;;;0.75;88.14;98175.78;5050602;28;20098;-74
2022/02/03 02:18:11;;;;;;;5.95;2.72;;;;;;;0.63;88.55;98177.63;5050387;28;19916;-75
2022/02/03 02:40:05;;;;;;;10.38;3.67;;;;;;;0.39;91.00;98187.44;5051137;28;20056;-75
2022/02/03 02:42:37;;;;;;;9.88;4.07;;;;;;;0.36;90.43;98193.28;5052849;28;20033;-74
2022/02/03 02:45:11;;;;;;;10.80;4.22;;;;;;;0.20;91.30;98182.28;5052654;28;20114;-75
2022/02/03 02:48:07;;;;;;;9.00;3.80;;;;;;;0.23;91.91;98187.22;5052706;28;20017;-74
2022/02/03 02:50:54;;;;;;;8.20;3.08;;;;;;;0.30;91.30;98180.72;5053480;28;20590;-74
2022/02/03 02:53:52;;;;;;;7.47;3.53;;;;;;;0.34;91.45;98187.31;5051879;28;20137;-75
2022/02/03 02:56:33;;;;;;;7.55;3.17;;;;;;;0.33;91.66;98196.41;5053360;28;20056;-74
2022/02/03 03:02:17;;;;;;;11.63;5.15;;;;;;;0.03;94.13;98197.38;5053465;28;20390;-75
2022/02/03 03:33:14;;;;;;;8.23;3.10;;;;;;;-0.45;99.38;98270.53;5054877;28;20087;-74
2022/02/03 03:35:47;;;;;;;7.10;2.60;;;;;;;-0.56;100.00;98269.34;5053025;28;20036;-74
2022/02/03 03:38:34;;;;;;;6.47;2.97;;;;;;;-0.60;100.00;98253.91;5052430;28;20052;-74
2022/02/03 03:41:01;;;;;;;5.72;3.05;;;;;;;-0.60;100.00;98265.47;5053306;28;20116;-74
2022/02/03 03:43:32;;;;;;;6.95;3.42;;;;;;;-0.64;100.00;98274.16;5053397;28;20021;-74
2022/02/03 03:46:08;;;;;;;6.65;3.20;;;;;;;-0.63;100.00;98273.13;5053191;28;20044;-74
2022/02/03 03:48:40;;;;;;;10.27;3.17;;;;;;;-0.54;100.00;98293.31;5051846;28;20032;-74
2022/02/03 03:51:10;;;;;;;9.00;3.08;;;;;;;-0.55;100.00;98287.13;5051979;28;20102;-74
2022/02/03 03:53:49;;;;;;;7.97;3.47;;;;;;;-0.73;100.00;98284.34;5051575;28;20024;-75
2022/02/03 03:56:31;;;;;;;8.98;3.22;;;;;;;-0.85;100.00;98280.69;5052928;28;20033;-74
2022/02/03 03:59:38;;;;;;;6.15;3.08;;;;;;;-0.94;100.00;98278.47;5053349;28;20025;-75
2022/02/03 04:51:57;;;;;;;9.52;4.63;;;;;;;-1.12;100.00;98376.59;5051939;28;20531;-75
2022/02/03 04:54:57;;;;;;;7.68;3.90;;;;;;;-1.16;100.00;98374.56;5054294;28;20025;-77
2022/02/03 05:07:16;;;;;;;12.57;4.70;;;;;;;-1.28;100.00;98408.41;5028304;28;20025;-75
2022/02/03 05:13:43;;;;;;;21.67;8.90;;;;;;;-1.23;100.00;98416.66;5030761;28;20033;-78
2022/02/03 05:17:29;;;;;;;15.35;6.13;;;;;;;-1.07;100.00;98430.44;5030776;28;20685;-75
2022/02/03 05:32:53;;;;;;;18.25;7.60;;;;;;;-1.39;100.00;98466.22;5030568;28;20128;-75
2022/02/03 05:41:59;;;;;;;14.27;5.73;;;;;;;-1.23;100.00;98459.59;5030520;28;20048;-76
2022/02/03 05:44:45;;;;;;;17.65;6.45;;;;;;;-1.28;100.00;98470.09;5030664;28;20036;-76
2022/02/03 05:49:58;;;;;;;22.58;6.60;;;;;;;-1.45;100.00;98477.75;5029854;28;20029;-77
2022/02/03 06:14:19;;;;;;;16.13;6.32;;;;;;;-1.44;100.00;98511.56;5047899;28;20472;-78
2022/02/03 06:17:03;;;;;;;21.05;7.38;;;;;;;-1.47;100.00;98511.19;5053916;28;20116;-78
2022/02/03 06:22:39;;;;;;;17.42;7.32;;;;;;;-1.18;100.00;98519.66;5055782;28;20063;-78
2022/02/03 06:27:42;;;;;;;14.43;6.18;;;;;;;-1.36;100.00;98516.75;5054680;28;20041;-76
2022/02/03 06:30:10;;;;;;;15.40;6.78;;;;;;;-1.13;100.00;98535.94;5049769;28;20022;-74
2022/02/03 06:32:43;;;;;;;14.73;6.53;;;;;;;-1.09;100.00;98547.94;5067325;28;20023;-76
2022/02/03 06:35:12;;;;;;;16.90;6.78;;;;;;;-1.13;100.00;98540.50;5048603;28;20021;-80
2022/02/03 06:37:38;;;;;;;21.02;7.38;;;;;;;-1.02;100.00;98561.34;5033978;28;20033;-81
2022/02/03 06:40:08;;;;;;;20.08;8.18;;;;;;;-1.09;100.00;98566.72;5048407;28;20067;-75
2022/02/03 06:42:33;;;;;;;17.25;7.22;;;;;;;-0.98;100.00;98570.66;5032524;28;20031;-76
2022/02/03 06:48:03;;;;;;;16.08;7.10;;;;;;;-0.47;100.00;98588.78;5045262;28;20056;-76
2022/02/03 06:50:43;;;;;;;16.73;6.80;;;;;;;-0.13;100.00;98600.06;5039858;28;20068;-74
2022/02/03 06:53:19;;;;;;;17.08;7.28;;;;;;;0.63;100.00;98593.94;5029835;28;20040;-76
2022/02/03 06:55:58;;;;;;;19.02;7.90;;;;;;;1.25;93.94;98596.63;5027448;28;20087;-78
2022/02/03 06:58:31;;;;;;;16.95;7.63;;;;;;;1.16;92.47;98603.28;5034521;28;20087;-75
2022/02/03 07:01:06;;;;;;;17.58;8.45;;;;;;;0.88;94.75;98601.00;5028553;28;20076;-73
2022/02/03 07:03:36;;;;;;;23.38;8.45;;;;;;;0.91;95.85;98600.56;5031454;28;20032;-75
2022/02/03 07:06:02;;;;;;;16.80;7.32;;;;;;;1.23;94.65;98614.84;5031090;28;20410;-75
2022/02/03 07:08:29;;;;;;;15.38;7.25;;;;;;;2.13;89.84;98616.88;5030252;28;20021;-75
2022/02/03 07:10:55;;;;;;;18.20;7.32;;;;;;;2.94;86.87;98629.97;5040912;28;20437;-80
2022/02/03 07:13:21;;;;;;;20.10;7.43;;;;;;;3.76;80.29;98633.63;5041228;28;20125;-76
2022/02/03 07:15:48;;;;;;;17.58;7.75;;;;;;;4.40;74.92;98640.75;5032361;28;20103;-75
2022/02/03 07:18:13;;;;;;;13.48;7.15;;;;;;;5.29;71.06;98633.81;5037532;28;20478;-78
2022/02/03 07:20:39;;;;;;;23.63;10.32;;;;;;;5.97;67.09;98641.75;5044075;28;20029;-77
2022/02/03 07:23:09;;;;;;;56.38;32.35;;;;;;;6.03;65.49;98637.19;5048866;28;20108;-78
2022/02/03 07:25:36;;;;;;;11.55;5.57;;;;;;;5.72;66.24;98638.59;5046913;28;20430;-76
2022/02/03 07:28:02;;;;;;;35.45;18.42;;;;;;;5.78;65.62;98643.88;5044731;28;20029;-76
2022/02/03 07:30:27;;;;;;;32.13;16.35;;;;;;;5.78;65.63;98649.28;5052976;28;20470;-76
2022/02/03 07:32:56;;;;;;;12.93;6.28;;;;;;;5.35;66.42;98636.38;5038477;28;20036;-75
2022/02/03 07:35:22;;;;;;;12.32;5.80;;;;;;;5.52;66.19;98639.09;5033693;28;20041;-76
2022/02/03 07:37:49;;;;;;;30.60;17.63;;;;;;;5.25;67.02;98638.91;5032158;28;20025;-75
2022/02/03 07:40:16;;;;;;;11.20;5.38;;;;;;;4.81;68.64;98639.69;5042900;28;20021;-76
2022/02/03 07:42:45;;;;;;;13.48;6.68;;;;;;;4.17;71.16;98638.91;5048019;28;20032;-74
2022/02/03 07:45:11;;;;;;;19.80;8.23;;;;;;;3.61;74.06;98639.50;5045659;28;20029;-75
2022/02/03 07:47:47;;;;;;;13.05;6.55;;;;;;;3.68;74.21;98637.50;5051364;28;20009;-76
2022/02/03 07:50:14;;;;;;;12.50;6.13;;;;;;;3.91;73.04;98642.13;5052292;28;20474;-74
2022/02/03 07:52:39;;;;;;;15.65;6.63;;;;;;;3.90;73.10;98656.69;5048989;28;20045;-77
2022/02/03 07:55:06;;;;;;;14.40;5.97;;;;;;;3.74;74.36;98654.69;5053118;28;20057;-75
2022/02/03 07:57:32;;;;;;;15.93;8.52;;;;;;;3.61;74.74;98641.38;5050462;28;20056;-77
2022/02/03 07:59:58;;;;;;;15.98;6.40;;;;;;;3.48;74.97;98644.28;5049430;28;20021;-75
2022/02/03 08:02:23;;;;;;;16.85;6.32;;;;;;;3.76;74.68;98660.66;5049538;28;20021;-76
2022/02/03 08:04:50;;;;;;;18.20;7.40;;;;;;;3.34;76.52;98667.19;5052219;28;20067;-75
2022/02/03 08:07:18;;;;;;;24.13;7.32;;;;;;;3.01;78.55;98665.78;5054410;28;20013;-79
2022/02/03 08:10:07;;;;;;;15.68;5.97;;;;;;;2.89;79.55;98654.13;5046295;28;20059;-76
2022/02/03 08:12:35;;;;;;;16.05;6.55;;;;;;;3.05;79.18;98658.88;5046924;28;20107;-76
2022/02/03 08:15:02;;;;;;;15.95;5.85;;;;;;;2.96;79.21;98660.25;5049138;28;20029;-75
2022/02/03 08:17:36;;;;;;;14.02;6.80;;;;;;;2.74;80.68;98659.09;5051188;28;20024;-76
2022/02/03 08:20:06;;;;;;;12.52;6.20;;;;;;;2.64;81.44;98667.75;5049070;28;20461;-76
2022/02/03 08:22:36;;;;;;;12.10;6.50;;;;;;;2.66;81.19;98671.03;5050609;28;20025;-75
2022/02/03 08:25:17;;;;;;;12.90;5.80;;;;;;;2.58;81.34;98678.63;5046934;28;20017;-75
2022/02/03 08:33:00;;;;;;;14.98;7.32;;;;;;;2.84;79.59;98678.31;5053482;28;20167;-75
2022/02/03 08:35:46;;;;;;;22.80;9.98;;;;;;;3.02;80.06;98686.38;5052552;28;20103;-76
2022/02/03 08:43:13;;;;;;;19.40;8.90;;;;;;;3.15;81.15;98680.78;5048839;28;20385;-75
2022/02/03 08:45:40;;;;;;;20.30;9.40;;;;;;;3.17;79.83;98678.66;5051026;28;20394;-75
2022/02/03 08:48:05;;;;;;;18.02;8.20;;;;;;;3.36;78.06;98684.00;5047592;28;20025;-76
2022/02/03 08:50:33;;;;;;;26.67;12.00;;;;;;;3.32;79.15;98685.53;5050938;28;20029;-75
2022/02/03 08:53:05;;;;;;;20.67;10.32;;;;;;;3.25;79.32;98677.53;5050449;28;20025;-76
2022/02/03 08:55:45;;;;;;;32.60;15.20;;;;;;;3.34;79.96;98691.53;5049063;28;20115;-75
2022/02/03 10:00:31;;;;;;;24.42;8.52;;;;;;;5.03;70.20;98711.16;5042562;28;20348;-75
2022/02/03 10:03:04;;;;;;;16.60;7.10;;;;;;;5.17;68.91;98696.22;5045525;28;20094;-76
2022/02/03 10:05:42;;;;;;;25.65;8.82;;;;;;;4.87;69.22;98695.63;5041681;28;20482;-76
2022/02/03 10:08:12;;;;;;;30.27;10.80;;;;;;;4.83;69.32;98703.41;5030816;28;20029;-76
2022/02/03 10:10:38;;;;;;;34.20;9.57;;;;;;;4.86;69.87;98694.81;5030918;28;20022;-77
2022/02/03 10:13:21;;;;;;;32.05;10.82;;;;;;;4.97;70.48;98706.69;5049801;28;20025;-74
2022/02/03 10:16:03;;;;;;;32.30;11.20;;;;;;;5.61;77.29;98691.03;5051389;28;20035;-76
2022/02/03 10:18:30;;;;;;;43.80;11.13;;;;;;;5.56;69.02;98689.09;5050703;28;20378;-76
2022/02/03 10:20:57;;;;;;;43.25;12.55;;;;;;;5.43;68.99;98688.56;5050404;28;20052;-75
2022/02/03 10:23:25;;;;;;;34.67;12.52;;;;;;;5.30;68.65;98689.69;5033908;28;20040;-76
2022/02/03 10:25:55;;;;;;;30.40;12.52;;;;;;;5.19;70.08;98688.69;5031538;28;20071;-74
2022/02/03 10:28:23;;;;;;;43.35;13.60;;;;;;;5.37;70.38;98704.75;5045627;28;20470;-75
2022/02/03 10:30:54;;;;;;;32.80;13.15;;;;;;;5.24;69.84;98701.50;5042100;28;20398;-76
2022/02/03 10:33:35;;;;;;;33.78;13.90;;;;;;;5.08;71.03;98710.41;5046501;28;20116;-75
2022/02/03 10:36:08;;;;;;;36.40;12.45;;;;;;;5.13;71.53;98700.50;5046885;28;20033;-77
2022/02/03 10:50:10;;;;;;;41.70;11.73;;;;;;;5.67;68.76;98690.09;5045438;28;20035;-75
2022/02/03 11:08:56;;;;;;;19.13;8.23;;;;;;;6.53;62.50;98666.97;5039539;28;20103;-78
2022/02/03 11:11:32;;;;;;;25.02;8.82;;;;;;;6.50;63.17;98656.59;5042553;28;20013;-76
2022/02/03 11:13:57;;;;;;;25.52;9.95;;;;;;;6.80;61.27;98656.97;5049717;28;20071;-77
2022/02/03 11:16:24;;;;;;;24.40;8.98;;;;;;;6.81;61.46;98650.47;5045085;28;20060;-80
2022/02/03 11:18:50;;;;;;;19.58;9.30;;;;;;;6.74;61.74;98653.38;5044681;28;20103;-76
2022/02/03 11:21:16;;;;;;;37.22;10.70;;;;;;;6.81;62.53;98643.16;5049411;28;20029;-77
2022/02/03 11:23:49;;;;;;;17.23;8.70;;;;;;;7.10;61.04;98646.47;5049130;28;20389;-77
2022/02/03 11:26:25;;;;;;;16.92;7.03;;;;;;;7.12;58.74;98622.53;5049196;28;20039;-78
2022/02/03 11:30:17;;;;;;;14.43;5.43;;;;;;;7.61;57.13;98636.06;5048382;28;20393;-79
2022/02/03 11:34:40;;;;;;;19.00;6.28;;;;;;;7.80;56.49;98632.69;5051222;28;20467;-78
2022/02/03 12:02:04;;;;;;;15.13;5.45;;;;;;;8.40;53.31;98585.94;5036498;28;20048;-77
2022/02/03 12:19:18;;;;;;;13.88;4.50;;;;;;;9.12;51.62;98561.34;5036923;28;20037;-77
2022/02/03 12:21:54;;;;;;;12.60;4.78;;;;;;;9.18;51.20;98562.16;5032864;28;20368;-77
2022/02/03 12:24:52;;;;;;;12.50;5.47;;;;;;;8.91;51.47;98547.94;5033849;28;20021;-82
2022/02/03 12:27:47;;;;;;;19.60;4.50;;;;;;;8.69;52.11;98544.63;5031499;28;20386;-77
2022/02/03 12:30:38;;;;;;;12.82;4.68;;;;;;;8.84;51.79;98534.56;5042622;28;20025;-76
2022/02/03 12:41:13;;;;;;;12.63;3.97;;;;;;;7.75;53.72;98510.13;5032846;28;20025;-78
2022/02/03 12:43:55;;;;;;;14.45;4.30;;;;;;;7.45;55.85;98524.38;5042604;28;20047;-83
2022/02/03 12:46:20;;;;;;;11.60;3.90;;;;;;;7.06;56.54;98509.34;5049999;28;20021;-79
2022/02/03 12:48:45;;;;;;;9.32;4.18;;;;;;;7.17;56.43;98505.63;5051758;28;20055;-77
2022/02/03 12:51:11;;;;;;;14.95;4.50;;;;;;;7.26;55.97;98509.50;5052547;28;20114;-79
2022/02/03 12:53:38;;;;;;;9.00;4.30;;;;;;;7.22;56.30;98511.09;5055108;28;20032;-75
2022/02/03 12:56:06;;;;;;;14.38;3.90;;;;;;;7.18;55.61;98501.00;5054275;28;20032;-78
2022/02/03 12:58:39;;;;;;;7.18;2.85;;;;;;;7.19;55.87;98506.19;5051186;28;20135;-77
2022/02/03 13:01:11;;;;;;;9.60;3.08;;;;;;;7.22;55.87;98508.38;5050238;28;20040;-76
2022/02/03 13:03:43;;;;;;;8.10;3.47;;;;;;;7.26;55.32;98504.06;5051459;28;20116;-77
2022/02/03 13:06:17;;;;;;;7.90;3.50;;;;;;;6.89;55.85;98487.69;5051772;28;20025;-76
2022/02/03 13:08:50;;;;;;;12.15;3.53;;;;;;;6.78;56.18;98487.88;5051825;28;20028;-76
2022/02/03 13:11:29;;;;;;;8.45;3.85;;;;;;;6.88;56.35;98490.69;5052157;28;20068;-76
2022/02/03 13:16:57;;;;;;;15.30;5.67;;;;;;;6.97;56.57;98467.38;5033623;28;20026;-75
2022/02/03 13:27:27;;;;;;;10.52;4.22;;;;;;;7.12;56.21;98453.06;5031798;28;20029;-77
2022/02/03 13:32:28;;;;;;;12.60;5.38;;;;;;;7.04;56.03;98456.28;5031739;28;20378;-77
2022/02/03 13:35:00;;;;;;;6.72;3.30;;;;;;;7.16;56.42;98449.59;5033282;28;20030;-77
2022/02/03 13:37:34;;;;;;;12.75;4.78;;;;;;;7.24;55.81;98440.91;5038850;28;20036;-75
2022/02/03 13:40:14;;;;;;;11.48;3.65;;;;;;;7.23;55.73;98439.31;5035705;28;20043;-81
2022/02/03 13:42:46;;;;;;;7.22;3.05;;;;;;;7.21;54.95;98433.28;5036289;28;20033;-78
2022/02/03 13:45:15;;;;;;;17.75;3.63;;;;;;;7.03;55.71;98432.88;5031109;28;20119;-76
2022/02/03 13:47:41;;;;;;;12.27;4.88;;;;;;;6.97;56.43;98435.56;5034219;28;20025;-74
2022/02/03 13:50:16;;;;;;;10.05;3.40;;;;;;;6.90;56.73;98432.25;5051001;28;20021;-76
2022/02/03 14:22:25;;;;;;;11.48;3.60;;;;;;;7.35;55.21;98404.56;5066289;28;20036;-78
2022/02/03 14:27:51;;;;;;;11.88;4.45;;;;;;;7.24;56.23;98408.28;5049163;28;20033;-77
2022/02/03 14:30:18;;;;;;;13.57;4.55;;;;;;;7.19;56.06;98399.28;5050224;28;20529;-78
2022/02/03 14:32:45;;;;;;;15.00;4.95;;;;;;;7.16;56.42;98395.19;5045328;28;20087;-76
2022/02/03 14:35:11;;;;;;;14.57;7.22;;;;;;;7.08;56.50;98392.13;5042290;28;20061;-77
2022/02/03 14:42:39;;;;;;;13.60;3.97;;;;;;;7.01;56.36;98386.94;5055728;28;20064;-79
2022/02/03 14:45:06;;;;;;;14.57;4.30;;;;;;;7.07;56.62;98385.88;5035980;28;20034;-80
2022/02/03 14:47:33;;;;;;;18.88;5.25;;;;;;;6.98;56.83;98377.38;5034788;28;20032;-78
2022/02/03 14:50:01;;;;;;;13.43;3.83;;;;;;;6.94;56.61;98386.31;5034733;28;20021;-75
2022/02/03 14:52:54;;;;;;;22.77;10.85;;;;;;;6.91;56.04;98376.78;5034126;28;20071;-77
2022/02/03 14:58:08;;;;;;;13.70;5.63;;;;;;;6.85;56.92;98368.84;5049050;28;20132;-81
2022/02/03 15:00:33;;;;;;;15.05;6.65;;;;;;;6.83;57.58;98376.44;5052905;28;20025;-79
2022/02/03 15:02:59;;;;;;;14.18;4.95;;;;;;;6.87;57.65;98381.09;5057815;28;20504;-81
2022/02/03 15:05:31;;;;;;;13.95;4.05;;;;;;;6.82;57.90;98362.06;5059213;28;20033;-77
2022/02/03 15:07:59;;;;;;;21.63;4.60;;;;;;;6.77;58.21;98358.44;5053457;28;20025;-80
2022/02/03 15:10:42;;;;;;;13.88;4.50;;;;;;;6.82;58.10;98356.63;5055670;28;20031;-78
2022/02/03 15:13:17;;;;;;;28.02;8.88;;;;;;;6.78;58.18;98351.94;5051957;28;20102;-78
2022/02/03 15:15:42;;;;;;;14.07;5.55;;;;;;;6.64;58.70;98334.47;5053211;28;20037;-79
2022/02/03 15:18:08;;;;;;;16.75;5.63;;;;;;;6.58;59.12;98347.16;5052958;28;20071;-78
2022/02/03 15:20:35;;;;;;;16.55;5.53;;;;;;;6.61;59.02;98354.00;5046951;28;20032;-76
2022/02/03 15:23:02;;;;;;;11.25;4.25;;;;;;;6.57;59.13;98364.56;5038345;28;20109;-76
2022/02/03 15:25:27;;;;;;;17.10;4.38;;;;;;;6.49;60.07;98356.88;5036086;28;20104;-76
2022/02/03 15:27:55;;;;;;;17.42;4.88;;;;;;;6.48;60.57;98366.91;5052694;28;20545;-77
2022/02/03 15:30:20;;;;;;;12.07;5.10;;;;;;;6.50;60.75;98368.56;5054053;28;20024;-79
2022/02/03 15:32:45;;;;;;;16.50;6.05;;;;;;;6.54;60.69;98361.56;5054351;28;20937;-76
2022/02/03 15:35:25;;;;;;;18.20;5.22;;;;;;;6.54;60.84;98364.28;5054319;28;20037;-79
2022/02/03 15:37:52;;;;;;;22.20;8.13;;;;;;;6.51;61.35;98348.47;5048351;28;20666;-76
2022/02/03 15:40:22;;;;;;;28.85;9.45;;;;;;;6.43;61.59;98339.72;5032042;28;20470;-76
2022/02/03 15:43:02;;;;;;;28.05;7.95;;;;;;;6.46;62.44;98336.47;5033654;28;20056;-75
2022/02/03 15:45:36;;;;;;;60.95;30.00;;;;;;;6.39;64.24;98325.00;5031967;28;20091;-74
2022/02/03 15:48:10;;;;;;;31.52;10.95;;;;;;;6.42;63.07;98334.56;5031748;28;20026;-77
2022/02/03 16:03:49;;;;;;;38.38;12.43;;;;;;;5.80;65.69;98329.59;5053273;28;20037;-75
2022/02/03 16:17:00;;;;;;;18.25;6.50;;;;;;;5.57;66.70;98310.91;5050720;28;20021;-76
2022/02/03 16:19:33;;;;;;;20.63;7.57;;;;;;;5.54;67.16;98319.53;5050181;28;20040;-75
2022/02/03 16:22:06;;;;;;;23.90;7.30;;;;;;;5.57;67.18;98326.34;5050821;28;20120;-74
2022/02/03 16:24:41;;;;;;;15.73;6.25;;;;;;;5.61;67.15;98324.75;5051526;28;20037;-76
2022/02/03 16:53:53;;;;;;;28.60;9.70;;;;;;;4.96;73.02;98293.03;5066316;28;20068;-76
2022/02/03 16:56:21;;;;;;;32.58;12.50;;;;;;;4.91;73.06;98284.03;5066330;28;20477;-74
2022/02/03 16:58:48;;;;;;;30.52;12.60;;;;;;;4.87;73.38;98289.13;5043527;28;20036;-75
2022/02/03 17:01:13;;;;;;;37.25;13.73;;;;;;;4.86;73.57;98290.19;5058266;28;20555;-76
2022/02/03 17:03:38;;;;;;;54.42;18.52;;;;;;;4.77;74.25;98295.22;5060202;28;20032;-74
2022/02/03 17:06:05;;;;;;;60.78;19.45;;;;;;;4.70;74.82;98300.00;5064220;28;20492;-75
2022/02/03 17:08:31;;;;;;;43.20;12.85;;;;;;;4.70;74.50;98308.13;5052241;28;20021;-75
2022/02/03 17:10:56;;;;;;;24.15;12.25;;;;;;;4.71;74.32;98304.34;5048775;28;20334;-76
2022/02/03 17:13:22;;;;;;;26.30;11.23;;;;;;;4.72;74.18;98313.31;5049415;28;20470;-77
2022/02/03 17:15:47;;;;;;;39.38;12.20;;;;;;;4.65;74.83;98313.47;5054655;28;20120;-76
2022/02/03 17:18:13;;;;;;;27.08;12.80;;;;;;;4.56;76.04;98308.72;5048181;28;20031;-76
2022/02/03 17:20:41;;;;;;;34.53;13.07;;;;;;;4.41;76.34;98295.78;5051368;28;20072;-75
2022/02/03 17:23:12;;;;;;;30.27;12.63;;;;;;;4.44;77.19;98305.28;5052063;28;20021;-74
2022/02/03 17:26:00;;;;;;;32.83;12.77;;;;;;;4.36;77.17;98302.97;5046151;28;20021;-77
2022/02/03 17:28:43;;;;;;;42.90;14.63;;;;;;;4.29;77.36;98295.84;5047418;28;20055;-79
2022/02/03 17:31:44;;;;;;;33.25;13.18;;;;;;;4.29;77.49;98301.25;5047533;28;20043;-74
2022/02/03 18:10:07;;;;;;;;;;;;;;;4.04;80.47;98290.03;5045347;28;20044;-74
2022/02/03 18:18:42;;;;;;;46.97;21.95;;;;;;;3.97;82.36;98281.25;5051258;28;20039;-76
2022/02/03 18:49:05;;;;;;;41.85;18.20;;;;;;;3.91;82.76;98300.34;5047891;28;20162;-75
2022/02/03 18:53:15;;;;;;;49.92;20.33;;;;;;;3.70;83.49;98285.63;5051030;28;20815;-75
2022/02/03 19:01:16;;;;;;;44.85;19.83;;;;;;;3.76;83.02;98281.94;5047872;28;20506;-75
2022/02/03 19:57:40;;;;;;;30.58;13.68;;;;;;;4.18;88.69;98248.03;5032530;28;20161;-75
2022/02/03 20:05:01;;;;;;;25.45;11.80;;;;;;;5.03;92.46;98263.03;5051046;28;20021;-75
2022/02/03 20:07:46;;;;;;;25.25;13.20;;;;;;;4.93;87.56;98252.91;5052790;28;20040;-76
2022/02/03 20:10:19;;;;;;;31.02;13.40;;;;;;;4.84;86.79;98257.13;5037283;28;20033;-75
2022/02/03 20:12:44;;;;;;;24.70;12.25;;;;;;;4.79;86.55;98255.16;5053025;28;20028;-75
2022/02/03 20:15:11;;;;;;;34.38;14.82;;;;;;;4.62;87.21;98253.56;5052206;28;20029;-74
2022/02/03 20:17:36;;;;;;;29.45;14.27;;;;;;;4.48;86.98;98253.09;5051423;28;20029;-77
2022/02/03 20:20:02;;;;;;;43.72;17.88;;;;;;;4.29;86.32;98249.81;5052004;28;20082;-76
2022/02/03 20:22:32;;;;;;;47.78;21.95;;;;;;;4.01;85.87;98243.72;5052805;28;20032;-76
2022/02/03 20:24:58;;;;;;;61.05;23.42;;;;;;;3.67;86.48;98234.72;5052685;28;20072;-79
2022/02/03 20:27:23;;;;;;;50.55;24.02;;;;;;;3.55;87.53;98237.50;5052407;28;20420;-74
2022/02/03 20:29:49;;;;;;;53.30;24.13;;;;;;;3.51;88.23;98232.84;5049036;28;20028;-76
2022/02/03 20:32:17;;;;;;;53.45;22.98;;;;;;;3.32;89.44;98229.50;5047106;28;20031;-75
2022/02/03 20:34:43;;;;;;;58.10;24.02;;;;;;;3.27;89.89;98234.00;5044187;28;20501;-73
2022/02/03 20:37:09;;;;;;;52.92;24.05;;;;;;;3.21;90.03;98233.91;5047948;28;20021;-75
2022/02/03 20:39:34;;;;;;;58.63;24.02;;;;;;;3.13;90.74;98228.88;5046697;28;20378;-75
2022/02/03 20:42:00;;;;;;;49.55;22.73;;;;;;;3.23;90.39;98239.88;5050122;28;20017;-76
2022/02/03 20:44:25;;;;;;;51.17;23.17;;;;;;;3.23;90.58;98234.47;5049749;28;20017;-75
2022/02/03 20:46:50;;;;;;;53.97;22.25;;;;;;;3.20;90.31;98217.94;5050969;28;20386;-75
2022/02/03 20:49:16;;;;;;;52.85;23.25;;;;;;;3.21;90.68;98219.59;5050666;28;21432;-74
2022/02/03 20:51:43;;;;;;;53.25;22.20;;;;;;;3.23;90.50;98214.75;5050520;28;20029;-76
2022/02/03 20:54:13;;;;;;;44.13;21.38;;;;;;;3.22;89.52;98211.25;5049964;28;20072;-76
2022/02/03 20:56:39;;;;;;;51.53;22.13;;;;;;;3.15;91.55;98207.84;5047675;28;20033;-76
2022/02/03 20:59:08;;;;;;;52.30;24.05;;;;;;;3.43;91.82;98207.03;5049638;28;20405;-76
2022/02/03 21:01:36;;;;;;;54.10;24.10;;;;;;;3.23;89.64;98207.47;5049409;28;20048;-76
2022/02/03 21:04:14;;;;;;;53.15;23.25;;;;;;;3.25;89.89;98204.53;5049239;28;20043;-76
2022/02/03 21:06:39;;;;;;;44.28;22.27;;;;;;;3.25;89.64;98199.13;5046488;28;20025;-75
2022/02/03 21:09:07;;;;;;;48.47;24.58;;;;;;;3.29;89.31;98194.06;5051165;28;20032;-76
2022/02/03 21:11:33;;;;;;;53.58;26.20;;;;;;;3.18;90.22;98196.56;5075949;28;20077;-76
2022/02/03 21:14:01;;;;;;;54.45;24.92;;;;;;;3.08;90.43;98193.66;5049219;28;20045;-74
2022/02/03 21:16:27;;;;;;;48.40;25.65;;;;;;;3.23;90.01;98196.66;5033435;28;20037;-80
2022/02/03 21:18:52;;;;;;;52.97;23.40;;;;;;;3.09;90.56;98195.31;5047685;28;20457;-78
2022/02/03 21:21:18;;;;;;;63.35;27.50;;;;;;;3.00;90.93;98191.38;5047981;28;20056;-76
2022/02/03 21:23:43;;;;;;;57.67;26.05;;;;;;;2.98;91.11;98185.38;5049760;28;20059;-78
2022/02/03 21:26:17;;;;;;;59.90;25.80;;;;;;;2.96;91.30;98192.06;5058255;28;20035;-75
2022/02/03 21:28:47;;;;;;;62.50;25.63;;;;;;;2.86;91.80;98190.00;5050905;28;20028;-76
2022/02/03 21:31:14;;;;;;;60.30;25.20;;;;;;;2.77;93.02;98187.91;5047201;28;20028;-76
2022/02/03 21:33:47;;;;;;;58.78;27.40;;;;;;;2.73;93.38;98179.47;5047392;28;20033;-74
2022/02/03 21:36:13;;;;;;;59.00;25.73;;;;;;;2.82;93.12;98179.94;5050348;28;20025;-75
2022/02/03 21:38:42;;;;;;;61.53;31.00;;;;;;;2.74;93.91;98181.13;5047302;28;20545;-77
2022/02/03 21:41:09;;;;;;;73.15;35.95;;;;;;;2.69;93.87;98181.03;5052535;28;20505;-75
2022/02/03 21:43:35;;;;;;;68.82;40.67;;;;;;;2.69;94.25;98178.31;5050111;28;20025;-77
2022/02/03 21:46:01;;;;;;;58.35;31.10;;;;;;;2.64;94.84;98176.31;5048281;28;20071;-76
2022/02/03 21:48:27;;;;;;;62.35;34.17;;;;;;;2.66;94.79;98173.41;5047259;28;20075;-77
2022/02/03 21:50:59;;;;;;;61.90;32.15;;;;;;;2.77;94.39;98175.22;5048940;28;20068;-76
2022/02/03 21:53:29;;;;;;;69.65;34.47;;;;;;;2.81;94.23;98162.91;5049960;28;20390;-77
2022/02/03 21:55:56;;;;;;;68.43;34.88;;;;;;;2.71;94.62;98154.59;5055305;28;20394;-76
2022/02/03 21:58:26;;;;;;;70.95;36.45;;;;;;;2.76;95.08;98165.47;5060350;28;20056;-77
2022/02/03 22:00:55;;;;;;;65.28;34.60;;;;;;;2.83;95.39;98159.94;5059121;28;20029;-76
2022/02/03 22:03:26;;;;;;;65.13;33.55;;;;;;;2.79;94.98;98162.28;5049178;28;20119;-76
2022/02/03 22:05:56;;;;;;;64.85;33.83;;;;;;;2.83;95.22;98168.88;5045973;28;20021;-74
2022/02/03 22:08:22;;;;;;;69.25;33.97;;;;;;;2.84;94.78;98154.31;5048880;28;20386;-77
2022/02/03 22:10:48;;;;;;;58.75;32.75;;;;;;;2.90;95.20;98160.63;5050121;28;20028;-74
2022/02/03 22:13:14;;;;;;;61.75;32.60;;;;;;;2.86;95.38;98165.69;5047713;28;20017;-75